San Diego, California
Current Conditions -  °F | °C
As of 12:51 PM on Tuesday 27 Jan 2015 (Local Time) from KSAN Reporting Station
Broken Clouds Broken Clouds  
Wind Chill: 22°   Ceiling: 25000
Heat Index: 22°   Visibility: 10mi
Dew Point:   Wind: 9mph
Humidity: 44%   Direction: 290°WNW
Pressure: 30.15"   Gusts: NA
Location:  32.72°N, 117.16°W
Report Text: KSAN 272051Z 29008KT 10SM FEW070 BKN250 22/09 A3015 RMK AO2 SLP211 T02170089 56016
Loading
Personal Weather Stations






























Interactive Weather Map New forecast layout! Learn more

10-Day Weather Forecast

Advertisements
Track Severe Weather on mobile